Time;durP1;ratioP1;P1;durP2;ratioP2;P2;SDS_P1;SDS_P2;PMS_P1;PMS_P2;Temp;Humidity;BMP_temperature;BMP_pressure;BME280_temperature;BME280_humidity;BME280_pressure;Samples;Min_cycle;Max_cycle;Signal;HPM_P1;HPM_P2
2022/04/20 00:01:13;;;;;;;8.00;5.77;;;9.50;1.00;;;;;;2609847;54;20428;-79
2022/04/20 00:03:39;;;;;;;6.17;5.67;;;9.50;1.00;;;;;;2605735;54;21390;-79
2022/04/20 00:06:06;;;;;;;6.13;5.17;;;9.40;1.40;;;;;;2605966;54;20166;-75
2022/04/20 00:08:32;;;;;;;5.73;5.33;;;9.30;1.80;;;;;;2606517;54;20158;-75
2022/04/20 00:10:59;;;;;;;5.60;5.20;;;9.30;2.80;;;;;;2604787;54;20403;-76
2022/04/20 00:13:25;;;;;;;5.37;4.97;;;9.20;2.40;;;;;;2607446;54;20587;-75
2022/04/20 00:15:51;;;;;;;6.43;5.43;;;9.10;4.60;;;;;;2611305;54;20400;-76
2022/04/20 00:18:17;;;;;;;6.50;5.90;;;9.00;5.60;;;;;;2603146;39;21116;-77
2022/04/20 00:20:42;;;;;;;6.47;5.83;;;9.00;6.50;;;;;;2606661;54;20395;-76
2022/04/20 00:23:08;;;;;;;6.07;5.57;;;9.00;5.50;;;;;;2606765;54;20566;-76
2022/04/20 00:25:34;;;;;;;7.33;6.07;;;8.90;6.80;;;;;;2602120;54;20162;-77
2022/04/20 00:28:00;;;;;;;7.13;6.57;;;9.00;6.90;;;;;;2605050;47;20290;-77
2022/04/20 00:30:26;;;;;;;6.10;5.50;;;8.90;7.50;;;;;;2604717;47;20184;-77
2022/04/20 00:32:52;;;;;;;6.30;5.37;;;8.90;7.80;;;;;;2599973;54;20430;-77
2022/04/20 00:35:18;;;;;;;6.90;5.43;;;8.80;8.80;;;;;;2599080;54;20427;-77
2022/04/20 00:37:45;;;;;;;6.83;6.13;;;8.70;9.60;;;;;;2599553;54;20193;-77
2022/04/20 00:40:14;;;;;;;5.90;5.40;;;8.50;12.00;;;;;;2600219;54;20595;-78
2022/04/20 00:42:41;;;;;;;5.37;4.80;;;8.40;12.80;;;;;;2600586;54;20423;-78
2022/04/20 00:45:08;;;;;;;7.30;5.77;;;8.30;15.40;;;;;;2601913;39;20774;-77
2022/04/20 00:47:39;;;;;;;6.50;5.80;;;8.30;16.90;;;;;;2600267;54;20465;-77
2022/04/20 00:50:07;;;;;;;7.43;5.40;;;8.30;16.90;;;;;;2600176;54;20423;-77
2022/04/20 00:52:34;;;;;;;7.90;5.83;;;8.30;15.00;;;;;;2602680;39;21087;-78
2022/04/20 00:55:00;;;;;;;6.17;5.60;;;8.20;14.40;;;;;;2600766;54;20438;-78
2022/04/20 00:57:26;;;;;;;6.87;5.60;;;8.30;13.20;;;;;;2602825;54;20392;-77
2022/04/20 00:59:55;;;;;;;5.63;5.23;;;8.30;12.40;;;;;;2605295;54;20169;-76
2022/04/20 01:02:23;;;;;;;6.33;5.70;;;8.30;12.90;;;;;;2605744;47;20437;-76
2022/04/20 01:04:51;;;;;;;5.90;5.07;;;8.30;14.10;;;;;;2606427;39;20825;-78
2022/04/20 01:07:41;;;;;;;9.63;5.80;;;8.40;13.20;;;;;;2605478;54;20441;-76
2022/04/20 01:10:21;;;;;;;5.70;5.20;;;8.30;12.80;;;;;;2610105;54;20477;-77
2022/04/20 01:13:04;;;;;;;5.37;4.80;;;8.20;14.20;;;;;;2607474;47;20423;-77
2022/04/20 01:15:46;;;;;;;9.17;5.40;;;8.20;14.60;;;;;;2606335;54;20414;-77
2022/04/20 01:18:45;;;;;;;5.10;4.70;;;8.10;14.70;;;;;;2605685;47;20455;-76
2022/04/20 01:21:41;;;;;;;5.80;5.27;;;8.10;16.40;;;;;;2610407;54;20461;-81
2022/04/20 01:24:25;;;;;;;6.17;5.57;;;8.00;18.20;;;;;;2613106;54;20976;-81
2022/04/20 01:27:10;;;;;;;7.30;6.10;;;7.90;19.50;;;;;;2615071;39;20792;-79
2022/04/20 01:29:58;;;;;;;6.10;5.27;;;7.80;21.30;;;;;;2614092;54;20431;-79
2022/04/20 01:32:38;;;;;;;9.20;6.13;;;7.80;22.20;;;;;;2611088;47;21002;-71
2022/04/20 01:35:13;;;;;;;6.20;5.67;;;7.80;22.60;;;;;;2609536;54;20386;-72
2022/04/20 01:37:39;;;;;;;5.73;5.00;;;7.80;20.90;;;;;;2609000;54;20974;-72
2022/04/20 01:40:05;;;;;;;7.23;5.40;;;7.70;23.20;;;;;;2610947;54;20502;-72
2022/04/20 01:42:32;;;;;;;6.70;6.00;;;7.70;23.70;;;;;;2612412;54;20432;-78
2022/04/20 01:45:01;;;;;;;6.80;5.67;;;7.60;24.50;;;;;;2614461;54;20972;-78
2022/04/20 01:47:59;;;;;;;5.40;4.90;;;7.60;24.00;;;;;;2610834;47;20420;-75
2022/04/20 01:54:11;;;;;;;6.93;5.87;;;7.60;25.60;;;;;;2610370;54;20439;-76
2022/04/20 01:56:49;;;;;;;5.80;5.30;;;7.60;25.50;;;;;;2605169;54;20429;-73
2022/04/20 01:59:37;;;;;;;6.93;5.40;;;7.50;27.00;;;;;;2605981;46;20420;-72
2022/04/20 02:02:36;;;;;;;5.53;5.13;;;7.40;28.60;;;;;;2605257;31;20836;-76
2022/04/20 02:05:21;;;;;;;10.20;5.90;;;7.40;29.70;;;;;;2609867;54;20529;-78
2022/04/20 02:07:49;;;;;;;5.83;4.90;;;7.40;30.50;;;;;;2606942;47;20445;-72
2022/04/20 02:10:21;;;;;;;8.47;5.97;;;7.30;33.80;;;;;;2599247;47;20427;-72
2022/04/20 02:12:47;;;;;;;8.50;6.07;;;7.30;38.00;;;;;;2599173;54;20425;-72
2022/04/20 02:15:29;;;;;;;6.30;5.60;;;7.30;40.40;;;;;;2599675;47;20443;-72
2022/04/20 02:18:01;;;;;;;5.87;5.37;;;7.20;40.40;;;;;;2600223;31;20895;-72
2022/04/20 02:20:49;;;;;;;6.00;5.50;;;7.20;41.50;;;;;;2600156;54;20468;-72
2022/04/20 02:23:15;;;;;;;6.33;5.83;;;7.10;42.60;;;;;;2603129;39;20974;-71
2022/04/20 02:25:43;;;;;;;6.63;6.00;;;7.10;42.60;;;;;;2606551;47;20460;-73
2022/04/20 02:28:09;;;;;;;6.93;6.00;;;7.10;42.60;;;;;;2607682;47;20419;-72
2022/04/20 02:30:35;;;;;;;7.20;6.47;;;7.00;43.60;;;;;;2600020;47;20188;-72
2022/04/20 02:33:01;;;;;;;5.80;5.30;;;6.90;46.60;;;;;;2601640;54;20408;-72
2022/04/20 02:35:27;;;;;;;5.93;5.50;;;6.90;47.90;;;;;;2599906;39;20342;-72
2022/04/20 02:37:53;;;;;;;7.23;6.60;;;6.80;49.50;;;;;;2600505;54;20161;-74
2022/04/20 02:40:19;;;;;;;7.20;5.80;;;6.90;51.40;;;;;;2600556;54;20257;-73
2022/04/20 02:42:46;;;;;;;6.27;5.67;;;6.80;51.60;;;;;;2608182;54;20418;-72
2022/04/20 02:45:12;;;;;;;6.50;5.90;;;6.80;52.20;;;;;;2601926;54;20410;-77
2022/04/20 02:47:38;;;;;;;7.13;5.70;;;6.70;55.10;;;;;;2601664;54;20422;-77
2022/04/20 02:50:04;;;;;;;11.30;6.77;;;6.70;57.30;;;;;;2600614;54;21121;-77
2022/04/20 02:52:29;;;;;;;6.20;5.60;;;6.70;58.90;;;;;;2601664;54;20474;-77
2022/04/20 02:54:55;;;;;;;7.17;6.47;;;6.60;58.20;;;;;;2600847;54;20411;-78
2022/04/20 02:57:21;;;;;;;6.03;5.47;;;6.70;58.20;;;;;;2607439;54;20456;-77
2022/04/20 02:59:51;;;;;;;6.57;5.97;;;6.70;58.00;;;;;;2599923;39;20789;-72
2022/04/20 03:02:17;;;;;;;7.50;6.23;;;6.70;58.60;;;;;;2599391;47;20424;-72
2022/04/20 03:04:43;;;;;;;6.80;6.03;;;6.60;58.40;;;;;;2599472;47;20177;-72
2022/04/20 03:07:10;;;;;;;6.17;5.53;;;6.50;60.60;;;;;;2599506;46;20470;-73
2022/04/20 03:09:48;;;;;;;7.33;5.47;;;6.40;64.90;;;;;;2604291;46;20502;-72
2022/04/20 03:12:15;;;;;;;5.90;5.33;;;6.40;68.60;;;;;;2605872;47;20433;-72
2022/04/20 03:14:48;;;;;;;6.10;5.60;;;6.30;72.90;;;;;;2607131;54;20428;-82
2022/04/20 03:17:14;;;;;;;6.60;5.90;;;6.30;74.50;;;;;;2606881;47;20422;-81
2022/04/20 03:19:40;;;;;;;5.90;5.30;;;6.30;75.70;;;;;;2605234;54;20456;-72
2022/04/20 03:22:06;;;;;;;7.90;5.87;;;6.40;75.70;;;;;;2605693;54;20408;-72
2022/04/20 03:24:32;;;;;;;6.17;5.57;;;6.40;72.90;;;;;;2608893;47;20400;-71
2022/04/20 03:27:08;;;;;;;6.50;5.90;;;6.30;73.80;;;;;;2599861;51;20202;-72
2022/04/20 03:29:37;;;;;;;6.60;5.63;;;6.30;76.10;;;;;;2606097;54;20425;-75
2022/04/20 03:32:08;;;;;;;12.37;7.23;;;6.30;73.80;;;;;;2599701;54;20417;-73
2022/04/20 03:34:34;;;;;;;5.90;5.40;;;6.30;74.40;;;;;;2599612;54;20260;-74
2022/04/20 03:37:00;;;;;;;6.07;5.53;;;6.20;77.30;;;;;;2606679;54;20489;-72
2022/04/20 03:39:25;;;;;;;6.93;6.00;;;6.10;84.20;;;;;;2606414;47;20180;-73
2022/04/20 03:41:51;;;;;;;6.73;6.13;;;6.10;88.50;;;;;;2600425;39;20891;-72
2022/04/20 03:44:17;;;;;;;6.70;5.60;;;6.10;90.00;;;;;;2600503;54;20173;-73
2022/04/20 03:46:47;;;;;;;7.00;5.57;;;6.20;82.60;;;;;;2600491;39;20257;-74
2022/04/20 03:49:12;;;;;;;7.23;6.53;;;6.20;78.90;;;;;;2600595;39;20793;-73
2022/04/20 03:51:39;;;;;;;6.90;6.27;;;6.20;77.40;;;;;;2600667;39;20697;-73
2022/04/20 03:54:05;;;;;;;8.80;7.20;;;6.20;78.40;;;;;;2600080;39;20583;-73
2022/04/20 03:59:18;;;;;;;6.87;6.27;;;6.30;70.70;;;;;;2602083;47;20529;-72
2022/04/20 04:01:46;;;;;;;11.40;6.00;;;6.30;69.80;;;;;;2599577;39;21014;-73
2022/04/20 04:04:12;;;;;;;7.47;6.70;;;6.40;67.90;;;;;;2599523;54;20413;-73
2022/04/20 04:06:39;;;;;;;9.40;7.40;;;6.30;66.40;;;;;;2598635;48;20415;-74
2022/04/20 04:09:06;;;;;;;10.23;6.60;;;6.40;67.20;;;;;;2600217;39;20804;-72
2022/04/20 04:11:32;;;;;;;7.50;6.80;;;6.40;66.00;;;;;;2599992;47;20447;-73
2022/04/20 04:13:58;;;;;;;8.73;6.83;;;6.30;68.40;;;;;;2604597;54;20434;-73
2022/04/20 04:16:24;;;;;;;7.63;6.93;;;6.30;69.90;;;;;;2604957;49;20361;-72
2022/04/20 04:18:50;;;;;;;7.00;5.80;;;6.30;75.10;;;;;;2604941;54;20571;-73
2022/04/20 04:21:17;;;;;;;7.10;6.40;;;6.30;74.80;;;;;;2604471;54;20173;-72
2022/04/20 04:23:43;;;;;;;6.60;5.67;;;6.40;73.50;;;;;;2605144;47;20414;-75
2022/04/20 04:26:14;;;;;;;6.40;5.80;;;6.30;72.00;;;;;;2608267;54;20550;-73
2022/04/20 04:28:46;;;;;;;7.87;6.93;;;6.30;72.60;;;;;;2607424;47;20420;-73
2022/04/20 04:31:13;;;;;;;8.70;6.33;;;6.20;75.60;;;;;;2605768;54;20433;-73
2022/04/20 04:33:39;;;;;;;7.50;6.80;;;6.20;78.50;;;;;;2605129;54;20410;-73
2022/04/20 04:36:05;;;;;;;11.53;7.70;;;6.10;79.80;;;;;;2605505;54;20439;-74
2022/04/20 04:38:37;;;;;;;9.57;7.00;;;6.20;81.10;;;;;;2604981;54;20203;-72
2022/04/20 04:41:04;;;;;;;11.20;7.90;;;6.20;82.30;;;;;;2605834;54;20413;-74
2022/04/20 04:43:33;;;;;;;7.50;6.60;;;6.20;80.60;;;;;;2605573;54;20434;-73
2022/04/20 04:49:02;;;;;;;6.30;5.80;;;6.20;75.70;;;;;;2609452;39;20862;-72
2022/04/20 04:51:28;;;;;;;7.17;6.37;;;6.20;74.90;;;;;;2607173;48;20864;-72
2022/04/20 04:53:54;;;;;;;8.20;7.13;;;6.20;74.30;;;;;;2606157;47;20564;-73
2022/04/20 04:56:30;;;;;;;8.20;6.30;;;6.30;72.40;;;;;;2605951;54;20435;-73
2022/04/20 04:58:56;;;;;;;8.17;7.37;;;6.20;75.40;;;;;;2601207;54;20420;-73
2022/04/20 05:01:23;;;;;;;7.17;6.27;;;6.30;71.40;;;;;;2600241;47;20448;-75
2022/04/20 05:03:53;;;;;;;7.63;6.93;;;6.40;66.40;;;;;;2600994;39;20561;-72
2022/04/20 05:06:20;;;;;;;8.00;6.43;;;6.40;65.90;;;;;;2600837;54;20528;-72
2022/04/20 05:08:58;;;;;;;7.27;6.53;;;6.50;64.00;;;;;;2600479;54;20451;-72
2022/04/20 05:11:24;;;;;;;7.50;6.43;;;6.60;62.20;;;;;;2599477;54;20443;-73
2022/04/20 05:13:49;;;;;;;10.43;6.73;;;6.70;63.80;;;;;;2599756;54;20433;-74
2022/04/20 05:16:16;;;;;;;9.30;7.40;;;6.70;65.40;;;;;;2600756;39;20868;-73
2022/04/20 05:18:42;;;;;;;7.77;6.90;;;6.90;61.10;;;;;;2600119;54;20462;-72
2022/04/20 05:21:07;;;;;;;12.63;7.23;;;7.00;54.50;;;;;;2601851;54;20423;-74
2022/04/20 05:23:33;;;;;;;6.17;5.57;;;7.10;50.10;;;;;;2607079;54;20643;-73
2022/04/20 05:25:59;;;;;;;8.13;7.37;;;7.40;48.60;;;;;;2606716;54;20158;-73
2022/04/20 05:28:25;;;;;;;8.97;7.17;;;7.60;43.00;;;;;;2605485;54;20213;-73
2022/04/20 05:30:51;;;;;;;8.83;7.10;;;8.10;40.10;;;;;;2605816;54;20156;-72
2022/04/20 05:33:17;;;;;;;12.77;6.93;;;8.50;33.60;;;;;;2604995;54;20432;-72
2022/04/20 05:35:43;;;;;;;15.67;7.03;;;8.80;27.00;;;;;;2604435;54;20439;-73
2022/04/20 05:43:52;;;;;;;6.90;6.10;;;9.50;16.60;;;;;;2607394;47;20427;-72
2022/04/20 05:46:24;;;;;;;8.23;7.50;;;9.80;13.80;;;;;;2608833;54;20468;-72
2022/04/20 05:49:05;;;;;;;7.90;7.30;;;10.00;11.50;;;;;;2609708;39;20732;-77
2022/04/20 05:51:33;;;;;;;7.40;6.20;;;10.20;10.20;;;;;;2612769;47;20445;-75
2022/04/20 05:53:59;;;;;;;7.60;6.87;;;10.50;9.10;;;;;;2613502;54;20435;-72
2022/04/20 05:56:27;;;;;;;7.47;6.87;;;10.70;7.90;;;;;;2613311;54;20441;-72
2022/04/20 05:58:54;;;;;;;7.50;6.63;;;11.10;4.70;;;;;;2614996;54;20423;-80
2022/04/20 06:01:22;;;;;;;10.03;7.07;;;11.40;4.40;;;;;;2615271;54;21014;-80
2022/04/20 06:03:58;;;;;;;7.80;7.00;;;11.80;1.30;;;;;;2616354;54;20415;-78
2022/04/20 06:06:34;;;;;;;7.47;6.70;;;12.00;1.00;;;;;;2613391;47;20415;-80
2022/04/20 06:09:08;;;;;;;9.00;7.43;;;12.40;1.00;;;;;;2611708;39;20904;-80
2022/04/20 06:11:45;;;;;;;14.70;6.80;;;12.70;1.00;;;;;;2611846;54;20487;-80
2022/04/20 06:14:18;;;;;;;6.83;6.33;;;12.70;1.00;;;;;;2614196;54;20454;-78
2022/04/20 06:17:06;;;;;;;8.10;7.30;;;12.90;1.00;;;;;;2610879;54;20415;-76
2022/04/20 06:19:36;;;;;;;8.10;7.27;;;13.20;1.00;;;;;;2611771;54;20454;-77
2022/04/20 06:22:20;;;;;;;7.57;6.87;;;13.30;1.00;;;;;;2612413;54;20423;-75
2022/04/20 06:24:57;;;;;;;6.80;6.23;;;13.30;1.00;;;;;;2609895;54;20437;-76
2022/04/20 06:27:45;;;;;;;7.80;7.10;;;13.60;1.00;;;;;;2610445;54;20470;-72
2022/04/20 06:30:41;;;;;;;8.27;7.50;;;13.90;1.00;;;;;;2612627;47;20435;-74
2022/04/20 06:33:33;;;;;;;9.03;7.43;;;14.20;1.00;;;;;;2611757;47;21028;-73
2022/04/20 06:36:01;;;;;;;9.97;7.37;;;14.40;1.00;;;;;;2612246;54;20432;-74
2022/04/20 06:38:45;;;;;;;9.33;7.60;;;14.70;1.00;;;;;;2614599;39;20842;-79
2022/04/20 06:41:34;;;;;;;9.37;7.57;;;14.70;1.00;;;;;;2610992;54;20428;-80
2022/04/20 06:44:18;;;;;;;10.27;8.20;;;14.90;1.00;;;;;;2610178;54;20849;-78
2022/04/20 06:46:50;;;;;;;10.30;8.37;;;15.20;1.00;;;;;;2609960;54;20424;-77
2022/04/20 06:49:43;;;;;;;8.93;7.70;;;15.50;1.00;;;;;;2609172;47;20441;-78
2022/04/20 07:00:37;;;;;;;15.63;14.03;;;15.90;1.00;;;;;;2609129;54;20444;-74
2022/04/20 07:03:10;;;;;;;16.97;11.67;;;16.10;1.00;;;;;;2611261;54;20456;-76
2022/04/20 07:05:59;;;;;;;13.83;12.60;;;15.90;1.00;;;;;;2610781;54;20455;-74
2022/04/20 07:08:37;;;;;;;13.90;12.50;;;15.90;1.00;;;;;;2615146;39;21173;-80
2022/04/20 07:11:13;;;;;;;12.73;11.30;;;16.10;1.00;;;;;;2611163;54;20439;-80
2022/04/20 07:13:39;;;;;;;10.50;9.50;;;16.30;1.00;;;;;;2612956;47;20431;-77
2022/04/20 07:16:05;;;;;;;12.93;11.50;;;16.50;1.00;;;;;;2613361;54;20439;-78
2022/04/20 07:18:34;;;;;;;13.23;9.47;;;16.80;1.00;;;;;;2610562;54;21119;-80
2022/04/20 07:21:00;;;;;;;16.57;11.60;;;16.90;1.00;;;;;;2612601;47;20422;-81
2022/04/20 07:23:46;;;;;;;13.23;9.30;;;17.10;1.00;;;;;;2614385;47;20447;-79
2022/04/20 07:26:41;;;;;;;10.67;9.40;;;17.30;1.00;;;;;;2613667;47;20473;-80
2022/04/20 07:29:15;;;;;;;14.30;9.90;;;17.50;1.00;;;;;;2609402;54;20438;-72
2022/04/20 07:31:49;;;;;;;15.10;10.30;;;17.50;1.00;;;;;;2608491;54;20454;-73
2022/04/20 07:34:30;;;;;;;14.23;11.23;;;17.90;1.00;;;;;;2609023;51;20434;-76
2022/04/20 07:37:23;;;;;;;11.03;10.03;;;18.00;1.00;;;;;;2613000;47;20433;-77
2022/04/20 07:40:14;;;;;;;12.70;11.30;;;18.20;1.00;;;;;;2613408;47;20416;-76
2022/04/20 07:43:04;;;;;;;12.70;11.40;;;18.00;1.00;;;;;;2612859;47;20519;-73
2022/04/20 07:45:59;;;;;;;11.83;10.63;;;18.50;1.00;;;;;;2612274;54;20481;-75
2022/04/20 07:48:45;;;;;;;8.73;7.83;;;18.90;1.00;;;;;;2611282;39;21299;-82
2022/04/20 07:51:44;;;;;;;10.03;9.00;;;18.90;1.00;;;;;;2611770;47;20437;-81
2022/04/20 07:54:28;;;;;;;9.17;8.50;;;18.00;1.00;;;;;;2612730;54;20457;-80
2022/04/20 07:57:17;;;;;;;9.27;7.97;;;18.00;1.00;;;;;;2611168;47;21507;-80
2022/04/20 08:00:07;;;;;;;12.53;8.37;;;18.40;1.00;;;;;;2611427;47;20431;-74
2022/04/20 08:02:41;;;;;;;13.73;8.43;;;18.80;1.00;;;;;;2613701;54;21014;-79
2022/04/20 08:05:16;;;;;;;9.60;7.23;;;19.00;1.00;;;;;;2615206;39;20781;-81
2022/04/20 08:07:45;;;;;;;8.40;7.60;;;19.20;1.00;;;;;;2613532;51;20493;-81
2022/04/20 08:10:12;;;;;;;8.30;7.50;;;19.50;1.00;;;;;;2612744;39;20797;-81
2022/04/20 08:12:44;;;;;;;7.53;6.93;;;19.70;1.00;;;;;;2611267;46;20445;-76
2022/04/20 08:15:16;;;;;;;6.57;6.07;;;20.00;1.00;;;;;;2609436;39;20830;-72
2022/04/20 08:17:47;;;;;;;7.20;6.50;;;20.20;1.00;;;;;;2608675;54;20474;-72
2022/04/20 08:20:35;;;;;;;7.00;6.50;;;20.30;1.00;;;;;;2613297;54;20438;-73
2022/04/20 08:23:01;;;;;;;8.57;6.90;;;19.80;1.00;;;;;;2611445;47;20435;-81
2022/04/20 08:25:27;;;;;;;6.93;6.33;;;19.00;1.00;;;;;;2614041;54;20438;-81
2022/04/20 08:27:53;;;;;;;8.67;6.97;;;19.40;1.00;;;;;;2614264;54;20183;-76
2022/04/20 08:30:19;;;;;;;27.03;24.50;;;19.50;1.00;;;;;;2610753;54;20229;-76
2022/04/20 08:32:45;;;;;;;21.87;20.23;;;19.50;1.00;;;;;;2611619;54;20154;-80
2022/04/20 08:35:11;;;;;;;8.30;7.80;;;19.40;1.00;;;;;;2613475;54;20424;-81
2022/04/20 08:37:37;;;;;;;8.63;6.07;;;19.70;1.00;;;;;;2618003;54;20146;-80
2022/04/20 08:40:04;;;;;;;9.00;6.50;;;19.90;1.00;;;;;;2614149;54;20518;-79
2022/04/20 08:42:33;;;;;;;6.57;5.97;;;19.90;1.00;;;;;;2612068;39;20878;-80
2022/04/20 08:45:02;;;;;;;7.10;6.60;;;19.80;1.00;;;;;;2612102;54;20565;-82
2022/04/20 08:47:37;;;;;;;7.80;7.17;;;19.70;1.00;;;;;;2612565;47;20421;-81
2022/04/20 08:50:06;;;;;;;7.17;6.47;;;20.00;1.00;;;;;;2614971;54;21498;-81
2022/04/20 08:52:38;;;;;;;8.10;7.50;;;20.20;1.00;;;;;;2611555;47;20399;-81
2022/04/20 08:55:08;;;;;;;7.47;6.77;;;20.20;1.00;;;;;;2615830;54;20414;-79
2022/04/20 08:57:37;;;;;;;6.80;6.20;;;20.20;1.00;;;;;;2618360;54;20458;-79
2022/04/20 09:00:06;;;;;;;6.93;6.33;;;20.30;1.00;;;;;;2613369;54;20419;-76
2022/04/20 09:02:32;;;;;;;7.97;6.80;;;20.70;1.00;;;;;;2612551;54;20419;-76
2022/04/20 09:04:58;;;;;;;6.40;5.73;;;20.90;1.00;;;;;;2610223;54;20424;-77
2022/04/20 09:07:25;;;;;;;5.60;5.17;;;20.70;1.00;;;;;;2610885;47;20487;-76
2022/04/20 09:09:52;;;;;;;10.67;5.90;;;20.80;1.00;;;;;;2611027;54;20430;-72
2022/04/20 09:12:20;;;;;;;10.80;6.03;;;21.10;1.00;;;;;;2612792;54;20438;-74
2022/04/20 09:14:50;;;;;;;7.20;6.60;;;21.10;1.00;;;;;;2616392;54;20454;-76
2022/04/20 09:17:20;;;;;;;7.50;6.93;;;20.90;1.00;;;;;;2616121;54;20480;-76
2022/04/20 09:19:51;;;;;;;7.00;5.70;;;20.80;1.00;;;;;;2621087;54;20412;-79
2022/04/20 09:22:25;;;;;;;7.70;5.97;;;20.80;1.00;;;;;;2623365;54;20491;-80
2022/04/20 09:24:57;;;;;;;5.90;5.40;;;21.10;1.00;;;;;;2614269;54;20572;-72
2022/04/20 09:27:27;;;;;;;6.00;5.50;;;21.00;1.00;;;;;;2614318;54;20493;-73
2022/04/20 09:29:57;;;;;;;12.63;11.03;;;20.90;1.00;;;;;;2620897;46;20500;-77
2022/04/20 09:32:34;;;;;;;6.53;6.03;;;20.80;1.00;;;;;;2620152;54;20403;-77
2022/04/20 09:35:03;;;;;;;5.67;5.17;;;20.90;1.00;;;;;;2616084;54;20427;-76
2022/04/20 09:37:30;;;;;;;5.83;5.33;;;20.90;1.00;;;;;;2615080;47;20428;-78
2022/04/20 09:40:04;;;;;;;5.67;5.27;;;21.10;1.00;;;;;;2615160;47;20523;-78
2022/04/20 09:42:31;;;;;;;5.33;4.93;;;20.90;1.00;;;;;;2616568;54;20398;-79
2022/04/20 09:44:59;;;;;;;6.53;6.00;;;20.80;1.00;;;;;;2617625;47;20438;-77
2022/04/20 09:50:23;;;;;;;5.73;5.40;;;20.70;1.00;;;;;;2616749;54;21001;-75
2022/04/20 09:52:50;;;;;;;5.23;4.80;;;20.70;1.00;;;;;;2615351;39;20659;-75
2022/04/20 09:55:37;;;;;;;5.63;5.33;;;21.10;1.00;;;;;;2611766;54;20453;-75
2022/04/20 09:58:20;;;;;;;5.40;5.10;;;21.40;1.00;;;;;;2610099;54;20419;-71
2022/04/20 10:00:53;;;;;;;8.47;5.63;;;21.40;1.00;;;;;;2609446;54;20450;-71
2022/04/20 10:03:27;;;;;;;5.93;5.43;;;21.00;1.00;;;;;;2612039;54;20388;-77
2022/04/20 10:05:54;;;;;;;5.43;4.93;;;21.00;1.00;;;;;;2614900;54;20437;-77
2022/04/20 10:08:22;;;;;;;5.90;5.50;;;20.80;1.00;;;;;;2620791;47;20452;-78
2022/04/20 10:10:51;;;;;;;5.93;5.33;;;20.70;1.00;;;;;;2618082;54;20563;-77
2022/04/20 10:13:19;;;;;;;7.03;6.43;;;20.80;1.00;;;;;;2616204;54;20466;-71
2022/04/20 10:18:37;;;;;;;12.00;5.83;;;20.70;1.00;;;;;;2617546;54;20548;-77
2022/04/20 10:21:06;;;;;;;5.40;4.90;;;20.90;1.00;;;;;;2624235;54;20410;-78
2022/04/20 10:23:34;;;;;;;8.53;6.73;;;21.00;1.00;;;;;;2618989;54;20420;-74
2022/04/20 10:26:06;;;;;;;5.60;5.10;;;21.10;1.00;;;;;;2617447;54;20428;-74
2022/04/20 10:28:50;;;;;;;5.73;5.43;;;21.20;1.00;;;;;;2616686;47;20614;-79
2022/04/20 10:31:25;;;;;;;5.80;5.30;;;21.30;1.00;;;;;;2617679;54;20419;-78
2022/04/20 10:33:59;;;;;;;5.40;5.00;;;21.70;1.00;;;;;;2617446;54;20423;-79
2022/04/20 10:37:05;;;;;;;5.43;5.03;;;21.60;1.00;;;;;;2616483;46;20434;-79
2022/04/20 10:39:41;;;;;;;6.20;5.70;;;21.10;1.00;;;;;;2619282;54;20447;-78
2022/04/20 10:42:19;;;;;;;6.93;6.10;;;20.90;1.00;;;;;;2615174;47;20479;-78
2022/04/20 10:45:00;;;;;;;5.60;5.10;;;21.00;1.00;;;;;;2619046;54;20432;-78
2022/04/20 10:47:27;;;;;;;5.60;5.10;;;21.10;1.00;;;;;;2622951;46;20441;-80
2022/04/20 10:50:09;;;;;;;6.13;5.63;;;21.10;1.00;;;;;;2618222;54;20423;-78
2022/04/20 10:52:46;;;;;;;5.80;5.30;;;21.60;1.00;;;;;;2614771;54;20427;-78
2022/04/20 10:55:12;;;;;;;6.23;5.70;;;22.00;1.00;;;;;;2615894;54;20437;-80
2022/04/20 10:57:41;;;;;;;5.07;4.70;;;21.90;1.00;;;;;;2616180;54;20407;-74
2022/04/20 11:00:19;;;;;;;4.90;4.70;;;21.90;1.00;;;;;;2612941;54;20504;-74
2022/04/20 11:02:53;;;;;;;5.40;5.00;;;21.70;1.00;;;;;;2616002;39;20793;-72
2022/04/20 11:05:21;;;;;;;5.50;5.10;;;21.60;1.00;;;;;;2610608;39;21153;-71
2022/04/20 11:08:03;;;;;;;5.30;5.00;;;21.20;1.00;;;;;;2610454;54;20406;-74
2022/04/20 11:10:30;;;;;;;5.80;5.30;;;21.60;1.00;;;;;;2612233;54;20426;-74
2022/04/20 11:19:12;;;;;;;6.97;6.27;;;21.60;1.00;;;;;;2613555;54;20620;-74
2022/04/20 11:22:10;;;;;;;5.10;4.80;;;21.80;1.00;;;;;;2615672;54;20436;-74
2022/04/20 11:24:36;;;;;;;6.33;5.73;;;21.70;1.00;;;;;;2621353;54;20403;-80
2022/04/20 11:27:03;;;;;;;5.00;4.60;;;21.60;1.00;;;;;;2620708;54;20395;-81
2022/04/20 11:29:29;;;;;;;5.70;5.40;;;21.60;1.00;;;;;;2621923;54;20176;-77
2022/04/20 11:32:09;;;;;;;5.00;4.67;;;21.50;1.00;;;;;;2619033;54;20464;-79
2022/04/20 11:35:12;;;;;;;5.33;4.90;;;21.60;1.00;;;;;;2616809;47;20404;-81
2022/04/20 11:37:39;;;;;;;5.40;5.03;;;21.60;1.00;;;;;;2620287;54;20441;-74
2022/04/20 11:40:12;;;;;;;5.83;5.53;;;21.70;1.00;;;;;;2613406;54;20404;-74
2022/04/20 11:42:42;;;;;;;5.20;4.90;;;22.10;1.00;;;;;;2614827;54;20484;-76
2022/04/20 11:45:09;;;;;;;11.73;4.90;;;22.10;1.00;;;;;;2619653;54;20392;-79
2022/04/20 11:47:42;;;;;;;5.50;5.20;;;22.30;1.00;;;;;;2613624;47;20422;-80
2022/04/20 11:50:16;;;;;;;5.23;4.93;;;22.10;1.00;;;;;;2613188;54;20426;-80
2022/04/20 11:52:58;;;;;;;4.77;4.43;;;22.10;1.00;;;;;;2613548;47;20453;-77
2022/04/20 11:55:54;;;;;;;6.63;4.97;;;22.00;1.00;;;;;;2615442;47;21020;-78
2022/04/20 11:58:20;;;;;;;6.30;5.30;;;21.70;1.00;;;;;;2614477;54;20411;-81
2022/04/20 12:00:46;;;;;;;5.57;5.27;;;21.10;1.00;;;;;;2616594;46;20425;-79
2022/04/20 12:03:12;;;;;;;4.97;4.57;;;21.40;1.00;;;;;;2616104;54;21029;-81
2022/04/20 12:05:39;;;;;;;5.30;5.00;;;22.00;1.00;;;;;;2615320;47;20174;-80
2022/04/20 12:08:05;;;;;;;5.03;4.63;;;22.00;1.00;;;;;;2615897;39;21587;-74
2022/04/20 12:10:32;;;;;;;5.17;4.87;;;21.70;1.00;;;;;;2613860;54;20395;-74
2022/04/20 12:13:02;;;;;;;4.93;4.53;;;21.80;1.00;;;;;;2614246;54;20411;-79
2022/04/20 12:15:28;;;;;;;5.10;4.70;;;21.80;1.00;;;;;;2615322;54;20439;-79
2022/04/20 12:17:57;;;;;;;5.40;4.90;;;21.70;1.00;;;;;;2614838;54;20527;-72
2022/04/20 12:20:25;;;;;;;5.87;5.40;;;21.60;1.00;;;;;;2609190;47;20438;-72
2022/04/20 12:23:06;;;;;;;4.80;4.50;;;21.20;1.00;;;;;;2609416;54;20146;-80
2022/04/20 12:25:32;;;;;;;4.97;4.70;;;21.10;1.00;;;;;;2612141;54;20441;-80
2022/04/20 12:28:35;;;;;;;5.40;5.00;;;21.20;1.00;;;;;;2613315;54;20950;-80
2022/04/20 12:30:48;;;;;;;7.17;5.70;;;21.40;1.00;;;;;;2613394;54;20666;-80
2022/04/20 12:33:33;;;;;;;5.30;4.90;;;21.30;1.00;;;;;;2615417;54;20443;-80
2022/04/20 12:36:11;;;;;;;4.77;4.47;;;21.80;1.00;;;;;;2612004;47;20545;-79
2022/04/20 12:38:59;;;;;;;5.43;5.03;;;22.00;1.00;;;;;;2613409;54;20447;-80
2022/04/20 12:41:41;;;;;;;5.23;4.90;;;21.80;1.00;;;;;;2613669;39;20863;-80
2022/04/20 12:44:35;;;;;;;9.00;5.70;;;22.20;1.00;;;;;;2612485;47;20435;-75
2022/04/20 12:47:21;;;;;;;5.97;5.57;;;22.80;1.00;;;;;;2610522;54;20396;-74
2022/04/20 12:49:51;;;;;;;6.00;5.50;;;22.50;1.00;;;;;;2615616;46;20488;-80
2022/04/20 12:52:22;;;;;;;6.20;5.53;;;22.30;1.00;;;;;;2618396;54;20463;-80
2022/04/20 12:54:58;;;;;;;5.67;5.37;;;22.40;1.00;;;;;;2616789;54;20411;-79
2022/04/20 13:03:06;;;;;;;7.90;7.00;;;22.20;1.00;;;;;;2610833;54;20416;-78
2022/04/20 13:05:37;;;;;;;7.17;6.47;;;21.90;1.00;;;;;;2615636;54;20419;-80
2022/04/20 13:08:05;;;;;;;6.97;6.47;;;21.80;1.00;;;;;;2616866;39;20819;-77
2022/04/20 13:10:34;;;;;;;7.30;6.67;;;21.50;1.00;;;;;;2612619;54;20484;-77
2022/04/20 13:13:00;;;;;;;7.80;7.20;;;21.60;1.00;;;;;;2612438;54;20492;-74
2022/04/20 13:15:29;;;;;;;8.17;7.47;;;21.60;1.00;;;;;;2611058;39;20992;-74
2022/04/20 13:17:57;;;;;;;9.73;7.33;;;21.40;1.00;;;;;;2612911;54;20515;-79
2022/04/20 13:20:25;;;;;;;7.20;6.70;;;21.30;1.00;;;;;;2613237;54;20434;-80
2022/04/20 13:22:52;;;;;;;8.13;7.53;;;21.40;1.00;;;;;;2612959;54;20446;-72
2022/04/20 13:28:05;;;;;;;5.97;5.57;;;21.90;1.00;;;;;;2615143;39;20826;-81
2022/04/20 13:30:57;;;;;;;6.43;6.03;;;22.20;1.00;;;;;;2616292;54;21029;-80
2022/04/20 13:33:23;;;;;;;7.47;7.07;;;22.30;1.00;;;;;;2613580;54;20427;-79
2022/04/20 13:35:52;;;;;;;9.40;8.60;;;22.30;1.00;;;;;;2612709;54;21310;-77
2022/04/20 13:38:18;;;;;;;8.23;7.63;;;22.40;1.00;;;;;;2613415;54;20408;-78
2022/04/20 13:40:44;;;;;;;8.00;7.40;;;22.00;1.00;;;;;;2612067;54;20435;-78
2022/04/20 13:43:11;;;;;;;6.80;6.40;;;21.90;1.00;;;;;;2613118;51;20435;-74
2022/04/20 13:45:36;;;;;;;8.43;7.63;;;21.70;1.00;;;;;;2611614;54;20400;-73
2022/04/20 13:48:03;;;;;;;7.73;7.13;;;21.70;1.00;;;;;;2612772;54;20473;-78
2022/04/20 13:50:29;;;;;;;8.00;7.40;;;21.90;1.00;;;;;;2614401;54;20150;-77
2022/04/20 13:52:55;;;;;;;7.87;7.27;;;21.90;1.00;;;;;;2614992;54;20421;-77
2022/04/20 13:55:45;;;;;;;10.77;7.83;;;21.80;1.00;;;;;;2617017;46;20457;-78
2022/04/20 13:58:11;;;;;;;7.37;6.87;;;21.60;1.00;;;;;;2616323;54;20499;-80
2022/04/20 14:00:40;;;;;;;8.57;7.87;;;21.40;1.00;;;;;;2615924;46;20419;-79
2022/04/20 14:03:38;;;;;;;8.43;7.33;;;21.50;1.00;;;;;;2633682;36;20633;-79
2022/04/20 14:06:04;;;;;;;8.47;7.87;;;21.60;1.00;;;;;;2615559;54;20465;-79